createdAt,value
2022-12-14T00:00:58.360Z,-3
2022-12-14T00:02:07.569Z,-3.2
2022-12-14T00:03:16.716Z,-3.2
2022-12-14T00:04:25.907Z,-3.1
2022-12-14T00:05:35.147Z,-3
2022-12-14T00:06:44.239Z,-3.1
2022-12-14T00:07:53.408Z,-2.9
2022-12-14T00:09:02.630Z,-3.1
2022-12-14T00:10:10.866Z,-3.1
2022-12-14T00:11:19.955Z,-3
2022-12-14T00:12:29.263Z,-3.1
2022-12-14T00:13:38.293Z,-3.2
2022-12-14T00:14:47.583Z,-3.1
2022-12-14T00:15:56.634Z,-3.2
2022-12-14T00:17:05.875Z,-3.3
2022-12-14T00:18:15.045Z,-3.3
2022-12-14T00:19:24.204Z,-3.4
2022-12-14T00:20:33.336Z,-3
2022-12-14T00:21:42.529Z,-2.7
2022-12-14T00:22:51.698Z,-3
2022-12-14T00:24:00.880Z,-3.2
2022-12-14T00:25:09.076Z,-3.3
2022-12-14T00:26:18.219Z,-3.4
2022-12-14T00:27:27.410Z,-3.3
2022-12-14T00:28:36.578Z,-3.4
2022-12-14T00:29:45.749Z,-3.5
2022-12-14T00:30:54.922Z,-3.4
2022-12-14T00:32:04.098Z,-3.5
2022-12-14T00:33:13.269Z,-3.4
2022-12-14T00:34:22.438Z,-2.9
2022-12-14T00:35:31.607Z,-3
2022-12-14T00:36:40.788Z,-3.3
2022-12-14T00:37:49.947Z,-3.3
2022-12-14T00:38:58.167Z,-3.3
2022-12-14T00:40:06.420Z,-3.3
2022-12-14T00:41:15.561Z,-3.4
2022-12-14T00:42:23.785Z,-3.3
2022-12-14T00:43:32.887Z,-3.3
2022-12-14T00:44:41.082Z,-3.4
2022-12-14T00:45:50.295Z,-3.4
2022-12-14T00:46:59.425Z,-3.4
2022-12-14T00:48:08.589Z,-3.5
2022-12-14T00:49:17.818Z,-3.4
2022-12-14T00:50:26.940Z,-3.4
2022-12-14T00:51:36.170Z,-3.4
2022-12-14T00:52:45.289Z,-3.4
2022-12-14T00:55:03.654Z,-3.4
2022-12-14T00:56:12.805Z,-3.4
2022-12-14T00:58:31.157Z,-3.3
2022-12-14T00:59:39.361Z,-3.1
2022-12-14T01:00:47.549Z,-3.1
2022-12-14T01:01:56.717Z,-3.2
2022-12-14T01:03:05.897Z,-3.2
2022-12-14T01:04:15.087Z,-3.1
2022-12-14T01:05:24.277Z,-3.1
2022-12-14T01:06:33.408Z,-3.2
2022-12-14T01:07:42.606Z,-3.2
2022-12-14T01:08:51.771Z,-3.2
2022-12-14T01:10:00.969Z,-3.1
2022-12-14T01:11:10.100Z,-3
2022-12-14T01:12:18.302Z,-3
2022-12-14T01:13:26.503Z,-3.1
2022-12-14T01:14:35.667Z,-2.7
2022-12-14T01:15:44.834Z,-2.9
2022-12-14T01:16:54.010Z,-2.7
2022-12-14T01:18:03.183Z,-2.9
2022-12-14T01:19:12.362Z,-2.8
2022-12-14T01:20:21.534Z,-2.6
2022-12-14T01:21:30.722Z,-2.7
2022-12-14T01:22:39.884Z,-2.8
2022-12-14T01:23:49.065Z,-2.8
2022-12-14T01:26:07.448Z,-2.8
2022-12-14T01:27:16.569Z,-2.9
2022-12-14T01:28:25.743Z,-2.9
2022-12-14T01:29:33.928Z,-2.9
2022-12-14T01:30:43.112Z,-3
2022-12-14T01:31:52.288Z,-3
2022-12-14T01:33:01.465Z,-3.1
2022-12-14T01:34:10.718Z,-3.1
2022-12-14T01:35:19.809Z,-3.1
2022-12-14T01:36:28.980Z,-3.1
2022-12-14T01:37:38.182Z,-3.1
2022-12-14T01:38:47.322Z,-3.1
2022-12-14T01:39:56.511Z,-3.1
2022-12-14T01:41:05.679Z,-3.1
2022-12-14T01:42:14.882Z,-3
2022-12-14T01:43:24.151Z,-3.1
2022-12-14T01:44:32.240Z,-3
2022-12-14T01:45:40.410Z,-2.9
2022-12-14T01:46:49.582Z,-3
2022-12-14T01:47:57.771Z,-3.1
2022-12-14T01:50:15.131Z,-3.1
2022-12-14T01:51:24.304Z,-3.2
2022-12-14T01:52:33.527Z,-3
2022-12-14T01:53:42.652Z,-3
2022-12-14T01:54:51.840Z,-3.1
2022-12-14T01:56:01.013Z,-3.2
2022-12-14T01:57:10.185Z,-3.2
2022-12-14T01:58:19.356Z,-3.2
2022-12-14T01:59:28.529Z,-3.2
2022-12-14T02:00:37.699Z,-3.2
2022-12-14T02:01:46.874Z,-3.2
2022-12-14T02:02:56.062Z,-3.2
2022-12-14T02:04:04.235Z,-3.2
2022-12-14T02:05:13.498Z,-3.2
2022-12-14T02:06:22.596Z,-3.2
2022-12-14T02:07:31.765Z,-3.2
2022-12-14T02:08:40.937Z,-3.2
2022-12-14T02:09:50.116Z,-3.2
2022-12-14T02:10:59.287Z,-3.2
2022-12-14T02:12:08.458Z,-3.1
2022-12-14T02:13:17.824Z,-3
2022-12-14T02:14:26.801Z,-3.1
2022-12-14T02:15:35.978Z,-3.1
2022-12-14T02:16:45.151Z,-3.2
2022-12-14T02:17:54.329Z,-3.2
2022-12-14T02:19:02.514Z,-3
2022-12-14T02:20:11.702Z,-3.2
2022-12-14T02:21:20.850Z,-3.1
2022-12-14T02:22:30.050Z,-3.2
2022-12-14T02:23:39.259Z,-3.2
2022-12-14T02:24:48.387Z,-3.2
2022-12-14T02:25:57.562Z,-3.2
2022-12-14T02:27:06.817Z,-3.2
2022-12-14T02:28:15.905Z,-3.2
2022-12-14T02:29:25.080Z,-3.2
2022-12-14T02:30:34.258Z,-3.2
2022-12-14T02:31:43.441Z,-3.3
2022-12-14T02:32:52.603Z,-3.2
2022-12-14T02:34:00.787Z,-3.2
2022-12-14T02:35:09.963Z,-3.2
2022-12-14T02:36:19.158Z,-3.2
2022-12-14T02:37:28.317Z,-3.2
2022-12-14T02:38:37.482Z,-3.2
2022-12-14T02:39:46.658Z,-3.2
2022-12-14T02:40:55.841Z,-3.2
2022-12-14T02:42:05.020Z,-3.2
2022-12-14T02:43:14.264Z,-3.2
2022-12-14T02:44:23.368Z,-3.2
2022-12-14T02:45:32.530Z,-3.2
2022-12-14T02:46:41.705Z,-3.3
2022-12-14T02:47:50.877Z,-3.3
2022-12-14T02:48:59.064Z,-3.4
2022-12-14T02:50:08.231Z,-3.3
2022-12-14T02:51:17.409Z,-3.2
2022-12-14T02:52:26.578Z,-3.1
2022-12-14T02:53:35.820Z,-3.1
2022-12-14T02:54:44.925Z,-2.9
2022-12-14T02:55:54.121Z,-3
2022-12-14T02:57:02.308Z,-3.1
2022-12-14T02:58:10.551Z,-2.9
2022-12-14T02:59:19.663Z,-3.1
2022-12-14T03:00:28.882Z,-3.2
2022-12-14T03:02:47.195Z,-3.3
2022-12-14T03:05:05.542Z,-3.4
2022-12-14T03:06:14.718Z,-3.4
2022-12-14T03:07:23.886Z,-3.5
2022-12-14T03:08:32.082Z,-3.5
2022-12-14T03:09:40.275Z,-3.4
2022-12-14T03:10:49.445Z,-3.4
2022-12-14T03:11:58.622Z,-3.4
2022-12-14T03:13:07.782Z,-3.4
2022-12-14T03:14:16.959Z,-3.4
2022-12-14T03:15:26.139Z,-3.4
2022-12-14T03:16:35.308Z,-3.3
2022-12-14T03:17:44.478Z,-3.3
2022-12-14T03:18:53.656Z,-3.3
2022-12-14T03:20:02.833Z,-3.2
2022-12-14T03:21:11.995Z,-3.2
2022-12-14T03:22:21.188Z,-3.3
2022-12-14T03:23:30.368Z,-3.2
2022-12-14T03:24:38.582Z,-3.3
2022-12-14T03:25:47.726Z,-3.2
2022-12-14T03:26:56.927Z,-3.1
2022-12-14T03:29:15.243Z,-3.3
2022-12-14T03:30:24.413Z,-3.3
2022-12-14T03:31:33.588Z,-3.4
2022-12-14T03:32:42.774Z,-3.3
2022-12-14T03:33:51.942Z,-3.3
2022-12-14T03:35:01.119Z,-3.3
2022-12-14T03:36:10.295Z,-3.4
2022-12-14T03:37:19.457Z,-3.3
2022-12-14T03:38:28.634Z,-3.3
2022-12-14T03:39:36.819Z,-3.4
2022-12-14T03:40:45.994Z,-3.4
2022-12-14T03:41:55.176Z,-3.5
2022-12-14T03:43:04.340Z,-3.5
2022-12-14T03:44:13.531Z,-3.5
2022-12-14T03:45:22.688Z,-3.5
2022-12-14T03:46:31.885Z,-3.4
2022-12-14T03:47:41.036Z,-3.4
2022-12-14T03:48:50.253Z,-3.3
2022-12-14T03:49:59.446Z,-3.3
2022-12-14T03:51:08.565Z,-3.3
2022-12-14T03:52:17.737Z,-3.3
2022-12-14T03:54:36.100Z,-3.1
2022-12-14T03:55:44.271Z,-3
2022-12-14T03:56:53.457Z,-3
2022-12-14T03:58:02.615Z,-2.8
2022-12-14T03:59:11.794Z,-3
2022-12-14T04:00:20.960Z,-2.9
2022-12-14T04:01:30.148Z,-3.1
2022-12-14T04:02:39.313Z,-3
2022-12-14T04:03:48.494Z,-3.1
2022-12-14T04:04:57.665Z,-3
2022-12-14T04:06:06.830Z,-3.1
2022-12-14T04:07:16.028Z,-3
2022-12-14T04:08:25.195Z,-3.1
2022-12-14T04:09:34.357Z,-3.2
2022-12-14T04:10:42.562Z,-3.3
2022-12-14T04:11:50.738Z,-3.3
2022-12-14T04:12:58.935Z,-3.3
2022-12-14T04:14:08.098Z,-3.3
2022-12-14T04:15:17.326Z,-3.3
2022-12-14T04:17:35.656Z,-3.3
2022-12-14T04:18:44.813Z,-3.4
2022-12-14T04:19:53.000Z,-3.4
2022-12-14T04:21:01.181Z,-3.5
2022-12-14T04:22:10.351Z,-3.5
2022-12-14T04:23:19.568Z,-3.5
2022-12-14T04:24:28.697Z,-3.5
2022-12-14T04:25:37.878Z,-3.5
2022-12-14T04:26:47.058Z,-3.5
2022-12-14T04:27:56.229Z,-3.5
2022-12-14T04:29:05.402Z,-3.6
2022-12-14T04:30:14.578Z,-3.4
2022-12-14T04:31:23.751Z,-3.4
2022-12-14T04:32:32.937Z,-3.4
2022-12-14T04:33:42.095Z,-3.3
2022-12-14T04:34:51.272Z,-3.4
2022-12-14T04:35:59.470Z,-3.4
2022-12-14T04:37:08.728Z,-3.4
2022-12-14T04:38:17.798Z,-3.4
2022-12-14T04:39:27.150Z,-3.5
2022-12-14T04:40:36.145Z,-3.5
2022-12-14T04:42:54.501Z,-3.3
2022-12-14T04:44:03.783Z,-3.2
2022-12-14T04:45:12.916Z,-3.1
2022-12-14T04:46:22.023Z,-3.4
2022-12-14T04:48:40.376Z,-3.5
2022-12-14T04:49:49.540Z,-3.6
2022-12-14T04:50:57.738Z,-3.6
2022-12-14T04:52:06.917Z,-3.6
2022-12-14T04:53:16.121Z,-3.6
2022-12-14T04:54:25.435Z,-3.4
2022-12-14T04:55:34.429Z,-3.5
2022-12-14T04:56:43.609Z,-3.6
2022-12-14T04:57:52.777Z,-3.6
2022-12-14T04:59:01.955Z,-3.7
2022-12-14T05:00:11.135Z,-3.7
2022-12-14T05:01:20.301Z,-3.7
2022-12-14T05:03:38.656Z,-3.7
2022-12-14T05:04:46.834Z,-3.6
2022-12-14T05:05:55.062Z,-3.6
2022-12-14T05:07:04.208Z,-3.6
2022-12-14T05:09:22.569Z,-3.8
2022-12-14T05:10:31.775Z,-3.8
2022-12-14T05:11:40.895Z,-3.8
2022-12-14T05:12:50.068Z,-3.8
2022-12-14T05:13:59.251Z,-3.9
2022-12-14T05:15:08.532Z,-3.9
2022-12-14T05:16:17.594Z,-3.9
2022-12-14T05:17:26.784Z,-3.9
2022-12-14T05:18:35.939Z,-3.9
2022-12-14T05:19:45.111Z,-3.9
2022-12-14T05:20:53.309Z,-4
2022-12-14T05:22:02.487Z,-4
2022-12-14T05:23:11.661Z,-4
2022-12-14T05:24:20.854Z,-4.1
2022-12-14T05:25:30.040Z,-4.1
2022-12-14T05:26:39.180Z,-3.9
2022-12-14T05:27:48.360Z,-4
2022-12-14T05:28:57.517Z,-4
2022-12-14T05:30:05.710Z,-4
2022-12-14T05:31:13.916Z,-4.1
2022-12-14T05:32:23.078Z,-4
2022-12-14T05:33:32.250Z,-4
2022-12-14T05:34:41.429Z,-3.9
2022-12-14T05:35:50.598Z,-3.9
2022-12-14T05:36:59.781Z,-3.9
2022-12-14T05:38:08.957Z,-3.9
2022-12-14T05:39:18.117Z,-3.9
2022-12-14T05:40:27.298Z,-3.9
2022-12-14T05:41:36.471Z,-3.9
2022-12-14T05:42:45.646Z,-3.9
2022-12-14T05:45:03.998Z,-3.8
2022-12-14T05:46:12.174Z,-3.8
2022-12-14T05:47:21.353Z,-3.7
2022-12-14T05:48:30.521Z,-3.7
2022-12-14T05:49:39.693Z,-3.7
2022-12-14T05:50:48.885Z,-3.7
2022-12-14T05:51:58.163Z,-3.7
2022-12-14T05:53:07.218Z,-3.7
2022-12-14T05:55:25.575Z,-3.5
2022-12-14T05:56:34.802Z,-3.6
2022-12-14T05:57:43.029Z,-3.5
2022-12-14T05:58:51.138Z,-3.4
2022-12-14T06:00:00.321Z,-3.4
2022-12-14T06:01:09.483Z,-3.5
2022-12-14T06:02:18.674Z,-3.5
2022-12-14T06:03:27.829Z,-3.3
2022-12-14T06:04:36.021Z,-3
2022-12-14T06:05:45.194Z,-3.3
2022-12-14T06:06:53.381Z,-3.4
2022-12-14T06:08:02.556Z,-3.5
2022-12-14T06:09:11.860Z,-3.5
2022-12-14T06:10:20.977Z,-3.5
2022-12-14T06:11:30.082Z,-3.5
2022-12-14T06:12:39.355Z,-3.5
2022-12-14T06:13:48.451Z,-3.4
2022-12-14T06:14:57.756Z,-3.4
2022-12-14T06:16:06.873Z,-3.4
2022-12-14T06:17:15.974Z,-3.4
2022-12-14T06:19:34.305Z,-3.4
2022-12-14T06:20:43.477Z,-3.4
2022-12-14T06:21:52.636Z,-3.3
2022-12-14T06:23:00.827Z,-3.4
2022-12-14T06:24:10.025Z,-3.4
2022-12-14T06:25:19.240Z,-3.4
2022-12-14T06:26:28.418Z,-3.3
2022-12-14T06:27:37.528Z,-3.3
2022-12-14T06:28:46.705Z,-3.3
2022-12-14T06:29:54.937Z,-3.3
2022-12-14T06:31:03.090Z,-3.4
2022-12-14T06:32:12.256Z,-3.4
2022-12-14T06:33:21.558Z,-3.3
2022-12-14T06:34:30.609Z,-3.2
2022-12-14T06:36:48.046Z,-3.2
2022-12-14T06:37:56.173Z,-3.2
2022-12-14T06:39:04.441Z,-3.2
2022-12-14T06:40:13.669Z,-3.3
2022-12-14T06:41:22.758Z,-3.2
2022-12-14T06:42:31.891Z,-3.2
2022-12-14T06:43:41.105Z,-3.1
2022-12-14T06:44:50.235Z,-3.2
2022-12-14T06:45:59.461Z,-3.2
2022-12-14T06:47:08.681Z,-3.2
2022-12-14T06:48:17.746Z,-3.2
2022-12-14T06:49:26.937Z,-3.2
2022-12-14T06:50:36.163Z,-3.3
2022-12-14T06:51:45.280Z,-3.3
2022-12-14T06:52:54.442Z,-3.2
2022-12-14T06:54:02.639Z,-3.2
2022-12-14T06:55:11.853Z,-3.1
2022-12-14T06:56:21.012Z,-3.1
2022-12-14T06:57:30.160Z,-3.1
2022-12-14T06:58:39.328Z,-2.7
2022-12-14T06:59:48.498Z,-2.7
2022-12-14T07:00:57.680Z,-2.7
2022-12-14T07:02:05.904Z,-2.8
2022-12-14T07:03:14.083Z,-2.9
2022-12-14T07:04:23.234Z,-3
2022-12-14T07:05:32.427Z,-3
2022-12-14T07:06:41.592Z,-3
2022-12-14T07:07:49.871Z,-3
2022-12-14T07:08:57.965Z,-3
2022-12-14T07:10:07.187Z,-3
2022-12-14T07:11:16.320Z,-2.9
2022-12-14T07:12:25.491Z,-2.9
2022-12-14T07:13:34.789Z,-3
2022-12-14T07:14:43.929Z,-3
2022-12-14T07:15:52.041Z,-3
2022-12-14T07:17:01.287Z,-3
2022-12-14T07:18:10.385Z,-3
2022-12-14T07:19:19.583Z,-2.8
2022-12-14T07:20:28.742Z,-2.8
2022-12-14T07:21:37.907Z,-2.6
2022-12-14T07:23:56.395Z,-2.8
2022-12-14T07:25:05.443Z,-2.5
2022-12-14T07:26:14.606Z,-2.3
2022-12-14T07:27:23.782Z,-2.4
2022-12-14T07:28:32.945Z,-2.5
2022-12-14T07:29:42.142Z,-2.6
2022-12-14T07:30:50.301Z,-2.7
2022-12-14T07:31:59.469Z,-2.7
2022-12-14T07:33:08.680Z,-2.6
2022-12-14T07:34:17.828Z,-2.6
2022-12-14T07:35:27.008Z,-2.5
2022-12-14T07:36:36.285Z,-2.5
2022-12-14T07:38:54.520Z,-2.5
2022-12-14T07:40:03.689Z,-2.6
2022-12-14T07:41:12.884Z,-2.4
2022-12-14T07:42:21.089Z,-2.5
2022-12-14T07:43:29.262Z,-2.7
2022-12-14T07:44:38.431Z,-2.8
2022-12-14T07:45:47.605Z,-2.9
2022-12-14T07:46:56.784Z,-2.9
2022-12-14T07:48:04.978Z,-2.9
2022-12-14T07:49:14.150Z,-2.6
2022-12-14T07:50:22.328Z,-2.6
2022-12-14T07:51:31.513Z,-2.6
2022-12-14T07:52:40.682Z,-2.6
2022-12-14T07:54:59.043Z,-2.6
2022-12-14T07:56:08.295Z,-2.6
2022-12-14T07:57:17.380Z,-2.4
2022-12-14T07:58:26.572Z,-2.4
2022-12-14T07:59:35.740Z,-2.5
2022-12-14T08:00:44.894Z,-2.4
2022-12-14T08:01:54.121Z,-2.6
2022-12-14T08:03:03.249Z,-2.4
2022-12-14T08:05:21.587Z,-2.6
2022-12-14T08:06:29.803Z,-2.6
2022-12-14T08:07:37.995Z,-2.7
2022-12-14T08:08:47.334Z,-2.6
2022-12-14T08:09:56.361Z,-2.5
2022-12-14T08:11:05.500Z,-2.6
2022-12-14T08:12:14.823Z,-2.7
2022-12-14T08:13:23.995Z,-2.4
2022-12-14T08:14:33.016Z,-2.5
2022-12-14T08:15:42.211Z,-2.5
2022-12-14T08:16:51.369Z,-2.4
2022-12-14T08:18:00.526Z,-2.6
2022-12-14T08:19:08.836Z,-2.3
2022-12-14T08:20:17.927Z,-2.1
2022-12-14T08:21:26.168Z,-2.2
2022-12-14T08:22:35.282Z,-2.1
2022-12-14T08:23:44.525Z,-2.3
2022-12-14T08:24:53.696Z,-2.1
2022-12-14T08:26:02.809Z,-2
2022-12-14T08:27:12.021Z,-2.2
2022-12-14T08:28:21.143Z,-2.3
2022-12-14T08:30:39.487Z,-2.2
2022-12-14T08:31:48.660Z,-1.9
2022-12-14T08:34:07.026Z,-2.1
2022-12-14T08:35:15.284Z,-2.1
2022-12-14T08:36:23.423Z,-1.9
2022-12-14T08:37:32.615Z,-2.1
2022-12-14T08:38:41.776Z,-2
2022-12-14T08:39:50.933Z,-2
2022-12-14T08:41:00.081Z,-2
2022-12-14T08:42:09.255Z,-2
2022-12-14T08:43:18.518Z,-2.1
2022-12-14T08:44:27.741Z,-2.2
2022-12-14T08:45:36.783Z,-2.1
2022-12-14T08:46:45.949Z,-2.3
2022-12-14T08:47:54.141Z,-2.3
2022-12-14T08:49:02.421Z,-2.2
2022-12-14T08:51:20.676Z,-1.8
2022-12-14T08:52:29.859Z,-2
2022-12-14T08:53:39.023Z,-2.1
2022-12-14T08:54:48.249Z,-2
2022-12-14T08:55:57.386Z,-2
2022-12-14T08:57:06.653Z,-1.9
2022-12-14T08:58:15.763Z,-1.9
2022-12-14T08:59:24.902Z,-2
2022-12-14T09:01:43.281Z,-1.8
2022-12-14T09:02:51.442Z,-2
2022-12-14T09:03:59.619Z,-2.1
2022-12-14T09:05:08.947Z,-2.1
2022-12-14T09:06:18.020Z,-2.2
2022-12-14T09:07:27.259Z,-2.3
2022-12-14T09:08:36.408Z,-2.2
2022-12-14T09:09:45.491Z,-2.2
2022-12-14T09:10:54.679Z,-2.4
2022-12-14T09:12:03.888Z,-2.4
2022-12-14T09:13:13.155Z,-2.5
2022-12-14T09:14:22.228Z,-2.6
2022-12-14T09:15:30.428Z,-2.7
2022-12-14T09:17:47.742Z,-2.7
2022-12-14T09:18:57.056Z,-2.7
2022-12-14T09:20:06.119Z,-2.7
2022-12-14T09:21:15.266Z,-2.7
2022-12-14T09:22:24.579Z,-2.7
2022-12-14T09:23:33.610Z,-2.7
2022-12-14T09:24:42.801Z,-2.7
2022-12-14T09:25:51.995Z,-2.7
2022-12-14T09:27:01.192Z,-2.8
2022-12-14T09:28:10.407Z,-2.7
2022-12-14T09:29:19.501Z,-2.7
2022-12-14T09:30:28.685Z,-2.7
2022-12-14T09:31:36.944Z,-2.7
2022-12-14T09:32:46.011Z,-2.7
2022-12-14T09:33:55.307Z,-2.7
2022-12-14T09:35:04.459Z,-2.7
2022-12-14T09:36:13.564Z,-2.7
2022-12-14T09:37:22.848Z,-2.7
2022-12-14T09:38:32.050Z,-2.6
2022-12-14T09:39:41.237Z,-2.2
2022-12-14T09:40:50.232Z,-1.1
2022-12-14T09:41:58.434Z,-0.4
2022-12-14T09:43:06.645Z,0.1
2022-12-14T09:44:15.845Z,0.1
2022-12-14T09:45:24.966Z,0.3
2022-12-14T09:46:34.128Z,0.5
2022-12-14T09:48:51.566Z,1.8
2022-12-14T09:49:59.711Z,1.6
2022-12-14T09:51:07.892Z,2.2
2022-12-14T09:52:17.137Z,2.6
2022-12-14T09:53:26.233Z,3
2022-12-14T09:54:35.401Z,3.5
2022-12-14T09:55:44.587Z,3.8
2022-12-14T09:56:53.762Z,4
2022-12-14T09:58:02.934Z,3.9
2022-12-14T09:59:12.095Z,3.3
2022-12-14T10:00:21.286Z,3.5
2022-12-14T10:01:30.456Z,3.9
2022-12-14T10:02:39.612Z,4.3
2022-12-14T10:03:48.796Z,3.9
2022-12-14T10:04:57.959Z,3.8
2022-12-14T10:06:06.159Z,3.9
2022-12-14T10:07:15.316Z,4.1
2022-12-14T10:08:24.563Z,3.6
2022-12-14T10:09:33.669Z,3.2
2022-12-14T10:10:42.842Z,3.1
2022-12-14T10:11:52.011Z,3.6
2022-12-14T10:13:01.203Z,4.1
2022-12-14T10:14:10.354Z,5.1
2022-12-14T10:15:18.546Z,4.7
2022-12-14T10:16:26.740Z,4.2
2022-12-14T10:17:34.933Z,4.2
2022-12-14T10:18:43.130Z,3.4
2022-12-14T10:19:52.306Z,3.5
2022-12-14T10:21:01.485Z,3.9
2022-12-14T10:22:10.649Z,4
2022-12-14T10:23:19.818Z,4.2
2022-12-14T10:24:28.986Z,3.5
2022-12-14T10:25:38.171Z,3.5
2022-12-14T10:26:47.337Z,2.8
2022-12-14T10:27:56.506Z,3.1
2022-12-14T10:29:05.683Z,3.1
2022-12-14T10:30:14.937Z,3.1
2022-12-14T10:31:24.036Z,3
2022-12-14T10:32:33.214Z,2.9
2022-12-14T10:33:41.395Z,3.1
2022-12-14T10:34:50.566Z,3.3
2022-12-14T10:35:59.729Z,3.5
2022-12-14T10:37:08.923Z,3.4
2022-12-14T10:38:18.170Z,2.9
2022-12-14T10:39:27.243Z,2.7
2022-12-14T10:40:36.424Z,3.1
2022-12-14T10:41:44.619Z,3
2022-12-14T10:42:52.806Z,2.9
2022-12-14T10:44:01.014Z,3
2022-12-14T10:45:09.185Z,3.4
2022-12-14T10:46:18.368Z,3.2
2022-12-14T10:47:27.534Z,2.7
2022-12-14T10:48:36.707Z,3.2
2022-12-14T10:49:45.945Z,3.5
2022-12-14T10:50:55.057Z,3.2
2022-12-14T10:52:04.219Z,3.1
2022-12-14T10:53:13.395Z,3.7
2022-12-14T10:54:22.563Z,3.9
2022-12-14T10:55:31.762Z,3.1
2022-12-14T10:56:40.920Z,3
2022-12-14T10:57:50.115Z,3.2
2022-12-14T10:58:59.254Z,3.3
2022-12-14T11:00:07.449Z,2.8
2022-12-14T11:01:16.613Z,2.7
2022-12-14T11:02:25.840Z,2.8
2022-12-14T11:03:34.982Z,2.8
2022-12-14T11:04:44.139Z,3.3
2022-12-14T11:05:53.313Z,3.7
2022-12-14T11:07:01.583Z,3.8
2022-12-14T11:08:10.719Z,2.7
2022-12-14T11:09:18.886Z,3
2022-12-14T11:10:27.066Z,2.3
2022-12-14T11:11:36.251Z,2.1
2022-12-14T11:12:45.409Z,2.8
2022-12-14T11:13:54.656Z,3.8
2022-12-14T11:15:02.784Z,4.5
2022-12-14T11:16:11.088Z,4.8
2022-12-14T11:17:20.129Z,3.2
2022-12-14T11:18:29.334Z,2.6
2022-12-14T11:19:38.483Z,2.7
2022-12-14T11:20:47.655Z,2.5
2022-12-14T11:21:56.851Z,2.7
2022-12-14T11:23:06.054Z,3.2
2022-12-14T11:24:15.298Z,3
2022-12-14T11:25:24.342Z,3
2022-12-14T11:26:33.516Z,3.4
2022-12-14T11:27:42.846Z,3.9
2022-12-14T11:28:51.974Z,4.2
2022-12-14T11:30:01.050Z,3.6
2022-12-14T11:31:09.296Z,3.8
2022-12-14T11:32:18.438Z,3.6
2022-12-14T11:33:27.579Z,3.1
2022-12-14T11:34:36.750Z,2.9
2022-12-14T11:35:45.959Z,2.8
2022-12-14T11:36:55.119Z,3
2022-12-14T11:38:04.308Z,3.1
2022-12-14T11:39:13.434Z,2.9
2022-12-14T11:40:22.609Z,3.3
2022-12-14T11:41:31.774Z,3.7
2022-12-14T11:42:40.948Z,4.1
2022-12-14T11:43:50.151Z,4.7
2022-12-14T11:44:59.359Z,5.1
2022-12-14T11:46:08.476Z,5.8
2022-12-14T11:47:16.670Z,4.5
2022-12-14T11:48:25.992Z,3.4
2022-12-14T11:49:35.002Z,3.3
2022-12-14T11:50:44.170Z,3.2
2022-12-14T11:51:53.354Z,3.9
2022-12-14T11:53:02.522Z,3.7
2022-12-14T11:54:11.699Z,4
2022-12-14T11:55:20.874Z,3.7
2022-12-14T11:56:29.087Z,3.3
2022-12-14T11:57:37.240Z,2.9
2022-12-14T11:58:46.437Z,2.9
2022-12-14T11:59:55.602Z,2.9
2022-12-14T12:01:03.846Z,3.2
2022-12-14T12:02:11.981Z,3.3
2022-12-14T12:03:21.161Z,3.5
2022-12-14T12:04:30.317Z,3.2
2022-12-14T12:05:39.487Z,2.8
2022-12-14T12:06:48.673Z,2.8
2022-12-14T12:07:57.843Z,3.2
2022-12-14T12:09:07.016Z,3
2022-12-14T12:10:16.188Z,2.4
2022-12-14T12:11:25.355Z,2.3
2022-12-14T12:12:34.608Z,2.3
2022-12-14T12:13:43.901Z,2.4
2022-12-14T12:14:52.885Z,2.7
2022-12-14T12:16:02.296Z,3.2
2022-12-14T12:17:10.394Z,3.2
2022-12-14T12:18:19.523Z,2.5
2022-12-14T12:19:28.583Z,2.5
2022-12-14T12:20:37.779Z,2.2
2022-12-14T12:21:46.940Z,2.5
2022-12-14T12:22:56.112Z,2.5
2022-12-14T12:24:05.346Z,2.8
2022-12-14T12:25:13.475Z,2.9
2022-12-14T12:26:21.653Z,3.2
2022-12-14T12:27:29.851Z,3.8
2022-12-14T12:28:38.048Z,4.8
2022-12-14T12:29:47.294Z,5.6
2022-12-14T12:30:56.401Z,5.6
2022-12-14T12:32:05.782Z,5.9
2022-12-14T12:33:14.729Z,4.7
2022-12-14T12:34:23.911Z,4.4
2022-12-14T12:35:33.077Z,3
2022-12-14T12:36:42.251Z,2.6
2022-12-14T12:37:51.419Z,3.5
2022-12-14T12:39:00.602Z,3.9
2022-12-14T12:40:09.770Z,3.7
2022-12-14T12:41:19.287Z,3.9
2022-12-14T12:42:28.119Z,3.9
2022-12-14T12:43:36.303Z,4.7
2022-12-14T12:44:45.471Z,4.9
2022-12-14T12:45:54.645Z,4.9
2022-12-14T12:47:03.825Z,5.7
2022-12-14T12:48:12.985Z,5.5
2022-12-14T12:49:22.167Z,6.3
2022-12-14T12:50:31.332Z,6.9
2022-12-14T12:51:39.589Z,7.6
2022-12-14T12:52:47.732Z,8
2022-12-14T12:53:56.976Z,6.4
2022-12-14T12:55:06.062Z,5.1
2022-12-14T12:56:15.245Z,4.8
2022-12-14T12:57:23.448Z,5.2
2022-12-14T12:58:31.696Z,4.7
2022-12-14T12:59:40.808Z,5.4
2022-12-14T13:00:49.960Z,4.9
2022-12-14T13:01:59.138Z,4.2
2022-12-14T13:03:08.315Z,3.6
2022-12-14T13:04:17.478Z,2.9
2022-12-14T13:05:26.655Z,3
2022-12-14T13:06:35.834Z,3.7
2022-12-14T13:07:44.999Z,3.7
2022-12-14T13:08:54.175Z,3.5
2022-12-14T13:10:03.350Z,3.1
2022-12-14T13:11:12.508Z,3.2
2022-12-14T13:12:21.756Z,3.8
2022-12-14T13:13:30.972Z,4.4
2022-12-14T13:14:39.095Z,5.1
2022-12-14T13:15:48.227Z,6
2022-12-14T13:16:57.396Z,5.9
2022-12-14T13:18:06.569Z,5
2022-12-14T13:19:15.771Z,5.1
2022-12-14T13:20:24.923Z,5.7
2022-12-14T13:21:33.150Z,5.4
2022-12-14T13:22:41.452Z,5.5
2022-12-14T13:23:49.498Z,5.2
2022-12-14T13:24:57.687Z,5
2022-12-14T13:26:06.869Z,5.9
2022-12-14T13:27:16.037Z,6.3
2022-12-14T13:28:25.321Z,5.9
2022-12-14T13:29:34.374Z,5
2022-12-14T13:30:43.549Z,4
2022-12-14T13:31:52.712Z,3.5
2022-12-14T13:33:01.892Z,3.5
2022-12-14T13:34:11.153Z,3.6
2022-12-14T13:35:20.235Z,4.1
2022-12-14T13:36:29.419Z,5
2022-12-14T13:37:38.587Z,4.1
2022-12-14T13:38:47.780Z,4.1
2022-12-14T13:39:55.967Z,4.2
2022-12-14T13:41:05.135Z,3.5
2022-12-14T13:42:14.358Z,4
2022-12-14T13:43:23.461Z,4.4
2022-12-14T13:44:32.631Z,4.7
2022-12-14T13:45:41.828Z,5.3
2022-12-14T13:46:50.976Z,4.5
2022-12-14T13:47:59.168Z,4.2
2022-12-14T13:49:07.365Z,4.7
2022-12-14T13:50:16.543Z,5.1
2022-12-14T13:51:25.733Z,4.1
2022-12-14T13:52:34.885Z,4.3
2022-12-14T13:54:53.239Z,3.7
2022-12-14T13:56:02.400Z,3.1
2022-12-14T13:57:11.568Z,2.8
2022-12-14T13:58:20.847Z,2.5
2022-12-14T13:59:29.910Z,2.8
2022-12-14T14:00:39.091Z,2.6
2022-12-14T14:01:48.266Z,2.7
2022-12-14T14:02:57.450Z,2.7
2022-12-14T14:04:05.616Z,2.4
2022-12-14T14:05:14.802Z,2.4
2022-12-14T14:06:23.966Z,3
2022-12-14T14:07:33.145Z,3.5
2022-12-14T14:08:42.312Z,3.4
2022-12-14T14:09:51.479Z,3.8
2022-12-14T14:11:00.668Z,3.4
2022-12-14T14:12:09.878Z,3.6
2022-12-14T14:13:18.020Z,3.3
2022-12-14T14:14:26.216Z,3
2022-12-14T14:15:34.416Z,3
2022-12-14T14:16:42.638Z,3
2022-12-14T14:17:51.800Z,2.8
2022-12-14T14:19:00.942Z,2.8
2022-12-14T14:21:19.278Z,3
2022-12-14T14:22:28.509Z,2.8
2022-12-14T14:23:37.630Z,3.2
2022-12-14T14:24:46.811Z,2.9
2022-12-14T14:25:55.972Z,2.5
2022-12-14T14:27:05.372Z,2.4
2022-12-14T14:28:14.478Z,2.3
2022-12-14T14:29:23.554Z,1.4
2022-12-14T14:30:32.724Z,0.8
2022-12-14T14:31:40.844Z,1.1
2022-12-14T14:32:50.030Z,1.2
2022-12-14T14:33:59.195Z,0.9
2022-12-14T14:35:08.370Z,1
2022-12-14T14:36:17.724Z,1.1
2022-12-14T14:37:26.799Z,1
2022-12-14T14:38:36.058Z,0.5
2022-12-14T14:39:45.109Z,0
2022-12-14T14:40:54.240Z,0
2022-12-14T14:42:03.423Z,0
2022-12-14T14:43:12.581Z,-0.1
2022-12-14T14:44:20.771Z,-0.3
2022-12-14T14:45:28.963Z,-0.4
2022-12-14T14:46:38.146Z,-0.6
2022-12-14T14:48:56.473Z,-0.8
2022-12-14T14:50:05.676Z,-0.8
2022-12-14T14:52:24.021Z,-0.9
2022-12-14T14:53:33.178Z,-0.9
2022-12-14T14:54:42.367Z,-0.9
2022-12-14T14:55:51.521Z,-1
2022-12-14T14:57:00.695Z,-1.1
2022-12-14T14:58:08.901Z,-1.1
2022-12-14T14:59:17.083Z,-1.1
2022-12-14T15:00:26.259Z,-1.1
2022-12-14T15:01:35.435Z,-1.1
2022-12-14T15:02:44.599Z,-1.1
2022-12-14T15:03:53.782Z,-1
2022-12-14T15:05:02.961Z,-1.1
2022-12-14T15:06:12.129Z,-1.1
2022-12-14T15:07:21.318Z,-1.2
2022-12-14T15:08:30.471Z,-1.2
2022-12-14T15:09:39.660Z,-1.2
2022-12-14T15:10:48.823Z,-1.2
2022-12-14T15:11:57.991Z,-1.3
2022-12-14T15:13:07.166Z,-1.3
2022-12-14T15:14:15.376Z,-1.4
2022-12-14T15:15:24.523Z,-1.4
2022-12-14T15:16:33.701Z,-1.4
2022-12-14T15:17:42.873Z,-1.4
2022-12-14T15:18:52.052Z,-1.5
2022-12-14T15:20:01.233Z,-1.6
2022-12-14T15:21:10.482Z,-1.7
2022-12-14T15:22:18.589Z,-1.8
2022-12-14T15:23:26.779Z,-1.8
2022-12-14T15:24:34.984Z,-1.8
2022-12-14T15:25:43.177Z,-1.9
2022-12-14T15:26:52.343Z,-1.9
2022-12-14T15:28:01.526Z,-1.9
2022-12-14T15:29:10.690Z,-1.9
2022-12-14T15:30:19.855Z,-1.9
2022-12-14T15:31:29.048Z,-2
2022-12-14T15:32:38.205Z,-2.1
2022-12-14T15:33:47.385Z,-2.1
2022-12-14T15:34:56.548Z,-2.1
2022-12-14T15:36:05.731Z,-2.2
2022-12-14T15:37:14.908Z,-2.2
2022-12-14T15:38:24.107Z,-2.1
2022-12-14T15:39:33.257Z,-2.1
2022-12-14T15:40:41.442Z,-2.2
2022-12-14T15:41:50.629Z,-2.2
2022-12-14T15:42:59.788Z,-2.3
2022-12-14T15:44:09.006Z,-2.3
2022-12-14T15:45:18.224Z,-2.4
2022-12-14T15:46:27.476Z,-2.6
2022-12-14T15:47:36.469Z,-2.6
2022-12-14T15:48:44.684Z,-2.7
2022-12-14T15:49:52.859Z,-2.7
2022-12-14T15:51:02.040Z,-2.7
2022-12-14T15:52:11.223Z,-2.7
2022-12-14T15:53:20.551Z,-2.8
2022-12-14T15:54:29.645Z,-2.8
2022-12-14T15:55:38.735Z,-2.9
2022-12-14T15:56:47.973Z,-2.9
2022-12-14T15:59:06.252Z,-3
2022-12-14T16:00:15.433Z,-3.1
2022-12-14T16:01:24.592Z,-3.1
2022-12-14T16:02:33.796Z,-3.1
2022-12-14T16:03:43.003Z,-3.1
2022-12-14T16:04:51.160Z,-3.1
2022-12-14T16:06:00.361Z,-3.1
2022-12-14T16:07:09.696Z,-3.1
2022-12-14T16:08:18.769Z,-3.1
2022-12-14T16:09:27.822Z,-3.1
2022-12-14T16:10:37.015Z,-3.2
2022-12-14T16:11:46.182Z,-3.2
2022-12-14T16:12:55.370Z,-3.3